Time;durP1;ratioP1;P1;durP2;ratioP2;P2;SDS_P1;SDS_P2;PMS_P1;PMS_P2;Temp;Humidity;BMP_temperature;BMP_pressure;BME280_temperature;BME280_humidity;BME280_pressure;Samples;Min_cycle;Max_cycle;Signal;HPM_P1;HPM_P2
2023/01/18 00:01:52;;;;;;;4.45;2.95;;;-1.00;99.90;;;;;;5079274;28;20049;-77
2023/01/18 00:04:17;;;;;;;4.57;2.88;;;-1.00;99.90;;;;;;5060055;28;20063;-78
2023/01/18 00:06:43;;;;;;;6.03;2.58;;;-1.00;99.90;;;;;;5063167;28;20052;-77
2023/01/18 00:09:09;;;;;;;4.68;3.30;;;-1.00;99.90;;;;;;5042171;28;20040;-77
2023/01/18 00:11:34;;;;;;;3.65;2.65;;;-1.00;99.90;;;;;;5077834;28;20040;-77
2023/01/18 00:14:01;;;;;;;4.22;3.15;;;-1.00;99.90;;;;;;5086190;28;20484;-77
2023/01/18 00:16:29;;;;;;;4.57;3.35;;;-1.00;99.90;;;;;;5091406;28;20041;-78
2023/01/18 00:18:56;;;;;;;4.03;2.83;;;-1.10;99.90;;;;;;5088978;28;20051;-77
2023/01/18 00:21:23;;;;;;;3.75;3.13;;;-0.10;99.90;;;;;;5082863;28;20048;-77
2023/01/18 00:23:49;;;;;;;4.93;3.45;;;-1.00;99.90;;;;;;5081400;28;20059;-76
2023/01/18 00:26:14;;;;;;;7.07;3.53;;;-0.90;99.90;;;;;;5061231;28;20459;-76
2023/01/18 00:28:41;;;;;;;4.85;2.92;;;-0.90;99.90;;;;;;5076141;28;20098;-76
2023/01/18 00:31:11;;;;;;;4.43;2.72;;;-1.00;99.90;;;;;;5080444;28;20087;-77
2023/01/18 00:33:37;;;;;;;4.75;3.08;;;-1.00;99.90;;;;;;5077109;28;20057;-77
2023/01/18 00:36:04;;;;;;;4.63;3.45;;;-0.90;99.90;;;;;;5075296;28;20037;-77
2023/01/18 00:38:30;;;;;;;6.70;3.63;;;-1.00;99.90;;;;;;5077221;28;20048;-76
2023/01/18 00:40:56;;;;;;;4.40;3.08;;;-1.00;99.90;;;;;;5072997;28;20044;-76
2023/01/18 00:43:37;;;;;;;4.65;3.70;;;-1.00;99.90;;;;;;5086936;28;20047;-76
2023/01/18 00:46:09;;;;;;;5.20;3.30;;;-1.00;99.90;;;;;;5081841;28;20068;-77
2023/01/18 00:48:35;;;;;;;7.63;4.05;;;-1.10;99.90;;;;;;5079994;28;20050;-77
2023/01/18 00:51:01;;;;;;;4.10;3.70;;;-1.10;99.90;;;;;;5083460;28;20048;-77
2023/01/18 00:53:28;;;;;;;6.43;4.03;;;-1.10;99.90;;;;;;5097510;28;20594;-76
2023/01/18 00:55:54;;;;;;;4.80;3.33;;;-1.10;99.90;;;;;;5077185;28;20055;-76
2023/01/18 00:58:19;;;;;;;8.55;3.63;;;-1.10;99.90;;;;;;5074933;28;20104;-76
2023/01/18 01:00:54;;;;;;;5.40;3.05;;;-1.10;99.90;;;;;;5082169;28;20044;-76
2023/01/18 01:03:20;;;;;;;6.32;3.70;;;-1.10;99.90;;;;;;5080052;28;20033;-76
2023/01/18 01:08:30;;;;;;;5.00;3.65;;;-1.20;99.90;;;;;;5069525;28;20112;-76
2023/01/18 01:11:10;;;;;;;4.97;3.42;;;-1.20;99.90;;;;;;5073989;28;20064;-77
2023/01/18 01:27:20;;;;;;;5.45;3.95;;;-1.30;99.90;;;;;;5080770;28;20075;-77
2023/01/18 01:29:45;;;;;;;4.32;3.40;;;-1.30;99.90;;;;;;5080777;28;20048;-78
2023/01/18 01:32:11;;;;;;;7.30;4.13;;;-1.30;99.90;;;;;;5079014;28;20040;-77
2023/01/18 01:34:37;;;;;;;6.30;4.50;;;-1.20;99.90;;;;;;5080927;28;20052;-76
2023/01/18 01:37:03;;;;;;;8.40;4.10;;;-1.30;99.90;;;;;;5079202;28;20063;-75
2023/01/18 01:39:29;;;;;;;6.07;4.45;;;-1.30;99.90;;;;;;5078210;28;20548;-76
2023/01/18 01:41:55;;;;;;;6.40;4.28;;;-1.30;99.90;;;;;;5085393;28;20074;-76
2023/01/18 01:44:23;;;;;;;7.75;4.30;;;-1.30;99.90;;;;;;5067036;28;20056;-77
2023/01/18 01:47:34;;;;;;;6.05;4.55;;;-1.30;99.90;;;;;;5080384;28;20053;-76
2023/01/18 01:50:16;;;;;;;5.72;4.22;;;-1.20;99.90;;;;;;5094551;28;20040;-76
2023/01/18 01:52:44;;;;;;;6.63;5.00;;;-1.30;99.90;;;;;;5091828;28;20075;-77
2023/01/18 01:55:37;;;;;;;6.43;4.47;;;-1.20;99.90;;;;;;5082655;28;20044;-77
2023/01/18 01:58:09;;;;;;;6.05;3.60;;;-1.10;99.90;;;;;;5063261;28;20096;-77
2023/01/18 02:00:35;;;;;;;5.60;4.07;;;-1.10;99.90;;;;;;5067015;28;20040;-77
2023/01/18 02:03:11;;;;;;;5.47;4.10;;;-1.20;99.90;;;;;;5079417;28;20060;-76
2023/01/18 02:05:45;;;;;;;6.32;4.07;;;-1.20;99.90;;;;;;5096692;28;20044;-77
2023/01/18 02:08:12;;;;;;;5.82;4.22;;;-1.20;99.90;;;;;;5083608;28;20086;-77
2023/01/18 02:10:39;;;;;;;6.97;4.50;;;-1.20;99.90;;;;;;5084947;28;20464;-77
2023/01/18 02:13:08;;;;;;;6.60;4.80;;;-1.10;99.90;;;;;;5079967;28;20036;-77
2023/01/18 02:15:52;;;;;;;8.70;4.82;;;-0.80;99.90;;;;;;5085070;28;20142;-76
2023/01/18 02:18:35;;;;;;;7.20;5.43;;;-1.40;99.90;;;;;;5061531;28;20079;-78
2023/01/18 02:21:04;;;;;;;7.07;4.93;;;-1.40;99.90;;;;;;5082694;28;20040;-78
2023/01/18 02:23:52;;;;;;;7.85;5.00;;;-1.40;99.90;;;;;;5079706;28;20143;-78
2023/01/18 02:26:42;;;;;;;7.72;4.55;;;-1.40;99.90;;;;;;5071450;28;20040;-79
2023/01/18 02:29:16;;;;;;;7.32;4.90;;;-1.40;99.90;;;;;;5079360;28;20116;-78
2023/01/18 02:32:17;;;;;;;6.07;4.68;;;-1.40;99.90;;;;;;5090779;28;20051;-79
2023/01/18 02:34:54;;;;;;;5.82;3.80;;;-1.40;99.90;;;;;;5088758;28;20048;-79
2023/01/18 02:37:45;;;;;;;5.65;4.35;;;-0.70;99.90;;;;;;5060228;28;20099;-79
2023/01/18 02:40:20;;;;;;;5.70;4.60;;;-1.30;99.90;;;;;;5077900;28;20056;-79
2023/01/18 02:48:38;;;;;;;6.50;4.85;;;-1.30;99.90;;;;;;5099718;28;20075;-78
2023/01/18 02:51:04;;;;;;;5.90;3.90;;;-1.20;99.90;;;;;;5080588;28;20036;-77
2023/01/18 02:53:32;;;;;;;8.98;4.70;;;-1.30;99.90;;;;;;5077861;28;20047;-79
2023/01/18 02:56:00;;;;;;;6.32;4.80;;;-1.30;99.90;;;;;;5079508;28;20041;-79
2023/01/18 02:58:37;;;;;;;6.30;4.55;;;-1.00;99.90;;;;;;5077711;28;20051;-78
2023/01/18 03:01:09;;;;;;;7.07;4.18;;;-1.30;99.90;;;;;;5078022;28;20082;-80
2023/01/18 03:03:36;;;;;;;5.43;4.30;;;-1.40;99.90;;;;;;5078593;28;20045;-79
2023/01/18 03:06:06;;;;;;;6.07;4.65;;;-0.80;99.90;;;;;;5083020;28;20492;-78
2023/01/18 03:08:46;;;;;;;6.00;4.72;;;-1.40;99.90;;;;;;5084195;28;20555;-78
2023/01/18 03:11:31;;;;;;;5.03;3.95;;;-1.40;99.90;;;;;;5082286;28;20139;-79
2023/01/18 03:14:31;;;;;;;6.45;4.60;;;-1.30;99.90;;;;;;5068330;28;20055;-79
2023/01/18 03:16:59;;;;;;;6.22;4.60;;;-1.30;99.90;;;;;;5080500;28;20082;-79
2023/01/18 03:20:07;;;;;;;5.13;3.90;;;-1.30;99.90;;;;;;5096641;28;20055;-78
2023/01/18 03:25:43;;;;;;;4.53;3.60;;;-0.90;99.90;;;;;;5078664;28;20045;-78
2023/01/18 03:34:24;;;;;;;6.10;4.22;;;-1.40;99.90;;;;;;5098699;28;20060;-78
2023/01/18 03:36:52;;;;;;;7.60;4.63;;;-1.40;99.90;;;;;;5086504;28;20082;-79
2023/01/18 03:39:40;;;;;;;5.40;3.97;;;-1.20;99.90;;;;;;5069357;28;20058;-79
2023/01/18 03:42:18;;;;;;;6.93;4.35;;;-1.40;99.90;;;;;;5080487;28;20040;-78
2023/01/18 03:45:03;;;;;;;6.10;4.00;;;-1.30;99.90;;;;;;5093467;28;20123;-79
2023/01/18 03:47:29;;;;;;;5.20;3.60;;;-1.30;99.90;;;;;;5078439;28;20036;-80
2023/01/18 03:49:56;;;;;;;6.70;3.75;;;-1.40;99.90;;;;;;5075661;28;20162;-78
2023/01/18 03:52:23;;;;;;;5.00;4.38;;;-1.00;99.90;;;;;;5084891;28;20063;-79
2023/01/18 03:55:03;;;;;;;6.72;3.90;;;-1.40;99.90;;;;;;5079495;28;20126;-79
2023/01/18 03:57:44;;;;;;;6.57;4.35;;;-1.40;99.90;;;;;;5084224;28;20047;-78
2023/01/18 04:00:11;;;;;;;5.72;4.03;;;-1.40;99.90;;;;;;5092894;28;20071;-79
2023/01/18 04:02:37;;;;;;;6.43;4.00;;;-1.50;99.90;;;;;;5076476;28;20067;-78
2023/01/18 04:05:04;;;;;;;6.97;4.22;;;-1.30;99.90;;;;;;5088988;28;20052;-79
2023/01/18 04:07:31;;;;;;;7.28;4.43;;;-1.50;99.90;;;;;;5084991;28;20049;-79
2023/01/18 04:10:00;;;;;;;6.18;4.25;;;-1.50;99.90;;;;;;5076022;28;20049;-79
2023/01/18 04:12:26;;;;;;;5.32;3.75;;;-1.50;99.90;;;;;;5077517;28;20145;-80
2023/01/18 04:14:51;;;;;;;5.63;4.25;;;-1.50;99.90;;;;;;5082841;28;20059;-79
2023/01/18 04:17:17;;;;;;;5.70;4.38;;;-1.40;99.90;;;;;;5084961;28;20045;-79
2023/01/18 04:19:43;;;;;;;8.30;4.60;;;-1.40;99.90;;;;;;5076292;28;20051;-79
2023/01/18 04:22:10;;;;;;;6.28;4.63;;;-1.50;99.90;;;;;;5060696;28;20059;-78
2023/01/18 04:24:35;;;;;;;7.25;4.68;;;-1.50;99.90;;;;;;5076192;28;20060;-78
2023/01/18 04:27:02;;;;;;;5.85;4.50;;;-1.50;99.90;;;;;;5082399;28;20048;-79
2023/01/18 04:29:28;;;;;;;8.60;5.05;;;-1.50;99.90;;;;;;5077519;28;20041;-79
2023/01/18 04:31:54;;;;;;;8.32;4.65;;;-1.50;99.90;;;;;;5075333;28;20051;-79
2023/01/18 04:34:22;;;;;;;6.00;3.80;;;-1.50;99.90;;;;;;5084455;28;20052;-78
2023/01/18 04:36:49;;;;;;;6.55;5.10;;;-1.50;99.90;;;;;;5086682;28;20079;-78
2023/01/18 04:39:15;;;;;;;8.25;4.82;;;-1.40;99.90;;;;;;5080676;28;20036;-78
2023/01/18 04:41:41;;;;;;;6.47;4.75;;;-1.40;99.90;;;;;;5069657;28;20040;-79
2023/01/18 04:44:07;;;;;;;6.78;5.18;;;-1.40;99.90;;;;;;5076256;28;20051;-79
2023/01/18 04:46:33;;;;;;;7.15;4.75;;;-1.40;99.90;;;;;;5067213;28;20064;-79
2023/01/18 04:48:59;;;;;;;6.65;4.53;;;-1.40;99.90;;;;;;5095497;28;20044;-79
2023/01/18 04:51:26;;;;;;;5.60;4.60;;;-1.40;99.90;;;;;;5080438;28;20055;-80
2023/01/18 04:53:52;;;;;;;12.00;4.95;;;-1.40;99.90;;;;;;5094350;28;20079;-79
2023/01/18 04:56:17;;;;;;;5.63;4.45;;;-1.20;99.90;;;;;;5076825;28;20048;-79
2023/01/18 04:58:44;;;;;;;6.30;4.70;;;-1.40;99.90;;;;;;5087494;28;20395;-78
2023/01/18 05:01:13;;;;;;;8.25;5.68;;;-1.10;99.90;;;;;;5075738;28;20091;-78
2023/01/18 05:03:40;;;;;;;7.75;4.97;;;-1.40;99.90;;;;;;5076914;28;20056;-78
2023/01/18 05:06:14;;;;;;;7.50;4.90;;;-1.40;99.90;;;;;;5075899;28;20435;-79
2023/01/18 05:08:40;;;;;;;6.32;4.68;;;-1.20;99.90;;;;;;5077325;28;20301;-78
2023/01/18 05:11:08;;;;;;;6.75;5.13;;;-1.40;99.90;;;;;;5058566;28;20043;-79
2023/01/18 05:13:34;;;;;;;6.55;5.05;;;-1.30;99.90;;;;;;5076637;28;20463;-77
2023/01/18 05:16:00;;;;;;;6.13;4.82;;;-1.40;99.90;;;;;;5095334;28;20048;-76
2023/01/18 05:18:26;;;;;;;6.32;4.72;;;-1.40;99.90;;;;;;5090505;28;20045;-78
2023/01/18 05:20:52;;;;;;;8.02;4.75;;;-1.40;99.90;;;;;;5076514;28;20113;-79
2023/01/18 05:23:18;;;;;;;6.30;4.82;;;-1.50;99.90;;;;;;5070676;28;20048;-78
2023/01/18 05:25:43;;;;;;;7.10;4.90;;;-1.50;99.90;;;;;;5084703;28;20411;-78
2023/01/18 05:28:09;;;;;;;5.70;4.82;;;-1.50;99.90;;;;;;5095629;28;20200;-78
2023/01/18 05:30:40;;;;;;;8.85;5.72;;;-1.50;99.90;;;;;;5089727;28;20575;-79
2023/01/18 05:33:07;;;;;;;6.57;5.40;;;-1.50;99.90;;;;;;5075806;28;20555;-78
2023/01/18 05:35:34;;;;;;;6.68;5.45;;;-1.50;99.90;;;;;;5075794;28;20055;-78
2023/01/18 05:38:00;;;;;;;8.18;5.50;;;-1.50;99.90;;;;;;5059778;28;20044;-78
2023/01/18 05:40:26;;;;;;;8.20;5.88;;;-1.50;99.90;;;;;;5077592;28;20082;-79
2023/01/18 05:42:52;;;;;;;6.90;4.97;;;-1.50;99.90;;;;;;5086301;28;20052;-79
2023/01/18 05:45:19;;;;;;;6.97;5.25;;;-1.50;99.90;;;;;;5095165;28;20105;-79
2023/01/18 05:47:45;;;;;;;5.93;4.75;;;-1.50;99.90;;;;;;5096311;28;20055;-79
2023/01/18 05:50:11;;;;;;;7.85;5.53;;;-1.50;99.90;;;;;;5097163;28;20048;-78
2023/01/18 05:52:37;;;;;;;8.00;4.80;;;-1.50;99.90;;;;;;5075617;28;20134;-79
2023/01/18 05:55:04;;;;;;;7.93;5.07;;;-1.50;99.90;;;;;;5075836;28;20052;-78
2023/01/18 05:57:30;;;;;;;8.07;5.20;;;-1.60;99.90;;;;;;5075065;28;20044;-79
2023/01/18 05:59:56;;;;;;;7.60;5.22;;;-1.60;99.90;;;;;;5076452;28;20037;-79
2023/01/18 06:02:23;;;;;;;7.60;5.32;;;-1.60;99.90;;;;;;5094900;28;20094;-79
2023/01/18 06:04:49;;;;;;;7.43;4.90;;;-1.60;99.90;;;;;;5097151;28;20434;-77
2023/01/18 06:07:15;;;;;;;9.13;5.22;;;-1.60;99.90;;;;;;5094148;28;20044;-78
2023/01/18 06:09:41;;;;;;;8.00;5.85;;;-1.60;99.90;;;;;;5089695;28;20094;-78
2023/01/18 06:12:07;;;;;;;6.60;5.07;;;-1.60;99.90;;;;;;5085725;28;20489;-77
2023/01/18 06:14:32;;;;;;;7.53;5.25;;;-1.60;99.90;;;;;;5086357;28;20127;-79
2023/01/18 06:17:00;;;;;;;6.97;4.90;;;-1.60;99.90;;;;;;5078997;28;20048;-78
2023/01/18 06:19:26;;;;;;;7.45;4.78;;;-1.70;99.90;;;;;;5078194;28;20121;-78
2023/01/18 06:21:53;;;;;;;7.20;5.45;;;-1.70;99.90;;;;;;5092041;28;20056;-77
2023/01/18 06:24:18;;;;;;;7.78;5.18;;;-1.60;99.90;;;;;;5097606;28;20040;-78
2023/01/18 06:26:44;;;;;;;7.15;4.65;;;-1.70;99.90;;;;;;5087369;28;20047;-79
2023/01/18 06:29:10;;;;;;;8.75;5.82;;;-1.70;99.90;;;;;;5099436;28;20036;-78
2023/01/18 06:31:36;;;;;;;8.48;5.03;;;-1.80;99.90;;;;;;5098536;28;20043;-79
2023/01/18 06:34:08;;;;;;;7.57;5.47;;;-1.80;99.90;;;;;;5088241;28;20059;-79
2023/01/18 06:36:35;;;;;;;9.15;6.10;;;-1.80;99.90;;;;;;5079448;28;20063;-79
2023/01/18 06:39:01;;;;;;;7.07;5.45;;;-1.80;99.90;;;;;;5094401;28;20109;-79
2023/01/18 06:41:28;;;;;;;9.57;5.90;;;-1.70;99.90;;;;;;5096161;28;20048;-78
2023/01/18 06:43:53;;;;;;;8.15;6.03;;;-1.70;99.90;;;;;;5087232;28;20048;-80
2023/01/18 06:46:19;;;;;;;7.38;6.30;;;-1.70;99.90;;;;;;5079167;28;20052;-79
2023/01/18 06:48:45;;;;;;;7.93;5.90;;;-1.50;99.90;;;;;;5079494;28;20041;-79
2023/01/18 06:51:11;;;;;;;9.68;6.28;;;-1.70;99.90;;;;;;5079023;28;20051;-79
2023/01/18 06:53:37;;;;;;;8.70;6.20;;;-1.60;99.90;;;;;;5081418;28;20067;-79
2023/01/18 06:56:04;;;;;;;7.63;5.22;;;-1.60;99.90;;;;;;5072219;28;20050;-79
2023/01/18 06:58:32;;;;;;;8.52;5.70;;;-1.60;99.90;;;;;;5078423;28;20056;-78
2023/01/18 07:00:59;;;;;;;7.57;6.20;;;-1.70;99.90;;;;;;5078446;28;20082;-79
2023/01/18 07:03:26;;;;;;;9.98;6.25;;;-1.70;99.90;;;;;;5078903;28;20040;-79
2023/01/18 07:05:53;;;;;;;9.13;6.03;;;-1.30;99.90;;;;;;5077599;28;20032;-78
2023/01/18 07:08:19;;;;;;;7.45;5.80;;;-1.80;99.90;;;;;;5078994;28;20036;-79
2023/01/18 07:10:46;;;;;;;7.40;5.70;;;-1.20;99.90;;;;;;5040211;28;20076;-79
2023/01/18 07:13:12;;;;;;;8.63;5.93;;;-1.70;99.90;;;;;;5071220;28;20129;-80
2023/01/18 07:15:38;;;;;;;10.13;5.90;;;-1.70;99.90;;;;;;5093976;28;20412;-81
2023/01/18 07:18:04;;;;;;;8.77;6.45;;;-1.70;99.90;;;;;;5061011;28;20132;-80
2023/01/18 07:20:30;;;;;;;9.85;6.47;;;-1.70;99.90;;;;;;5084439;28;20075;-79
2023/01/18 07:22:57;;;;;;;10.48;6.50;;;-1.80;99.90;;;;;;5098950;28;20052;-80
2023/01/18 07:25:24;;;;;;;7.72;6.40;;;-1.80;99.90;;;;;;5097597;28;20040;-81
2023/01/18 07:27:50;;;;;;;10.77;6.88;;;-1.70;99.90;;;;;;5077966;28;20052;-78
2023/01/18 07:30:16;;;;;;;9.48;6.95;;;-1.70;99.90;;;;;;5086133;28;20044;-80
2023/01/18 07:32:50;;;;;;;11.35;7.18;;;-1.70;99.90;;;;;;5079283;28;20146;-80
2023/01/18 07:35:18;;;;;;;9.07;6.80;;;-1.80;99.90;;;;;;5078694;28;20048;-80
2023/01/18 07:37:49;;;;;;;9.88;7.82;;;-1.80;99.90;;;;;;5077805;28;20069;-79
2023/01/18 07:40:15;;;;;;;9.63;6.95;;;-1.70;99.90;;;;;;5076627;28;20048;-79
2023/01/18 07:42:41;;;;;;;9.57;7.28;;;-1.70;99.90;;;;;;5111649;28;20033;-80
2023/01/18 07:45:08;;;;;;;9.13;6.97;;;-1.80;99.90;;;;;;5085743;28;20048;-80
2023/01/18 07:47:34;;;;;;;9.32;6.43;;;-1.60;99.90;;;;;;5078490;28;20063;-80
2023/01/18 07:50:00;;;;;;;11.55;8.15;;;-1.70;99.90;;;;;;5093203;28;20047;-79
2023/01/18 07:52:26;;;;;;;8.98;6.88;;;-1.30;99.90;;;;;;5081674;28;20087;-79
2023/01/18 07:54:52;;;;;;;9.00;7.25;;;-1.70;99.90;;;;;;5082038;28;20080;-79
2023/01/18 07:57:18;;;;;;;11.20;7.20;;;-1.80;99.90;;;;;;5076647;28;20044;-79
2023/01/18 07:59:43;;;;;;;10.23;7.35;;;-1.70;99.90;;;;;;5078136;28;20622;-79
2023/01/18 08:02:12;;;;;;;11.13;7.30;;;-1.70;99.90;;;;;;5059509;28;20043;-79
2023/01/18 08:04:38;;;;;;;12.57;8.05;;;-1.70;99.90;;;;;;5079566;28;20044;-80
2023/01/18 08:07:04;;;;;;;10.98;7.53;;;-1.60;99.90;;;;;;5078191;28;20056;-78
2023/01/18 08:09:32;;;;;;;10.82;7.13;;;-1.60;99.90;;;;;;5072018;28;20462;-77
2023/01/18 08:12:01;;;;;;;10.85;7.55;;;-1.60;99.90;;;;;;5078259;28;20082;-77
2023/01/18 08:14:27;;;;;;;12.23;8.55;;;-1.60;99.90;;;;;;5075601;28;20073;-80
2023/01/18 08:16:52;;;;;;;11.57;8.07;;;-1.50;99.90;;;;;;5061048;28;20076;-80
2023/01/18 08:19:18;;;;;;;9.30;6.65;;;-1.40;99.90;;;;;;5072248;28;20088;-79
2023/01/18 08:21:46;;;;;;;11.30;6.65;;;-1.40;99.90;;;;;;5064750;28;20041;-80
2023/01/18 08:24:12;;;;;;;11.98;8.32;;;-1.40;99.90;;;;;;5072995;28;20397;-80
2023/01/18 08:26:38;;;;;;;9.05;6.50;;;-1.10;99.90;;;;;;5075492;28;20040;-80
2023/01/18 08:29:05;;;;;;;8.85;6.53;;;-1.30;99.90;;;;;;5059024;28;20133;-78
2023/01/18 08:31:30;;;;;;;11.75;8.30;;;-1.30;99.90;;;;;;5075357;28;20048;-81
2023/01/18 08:33:56;;;;;;;10.20;8.63;;;-1.30;99.90;;;;;;5076286;28;20424;-80
2023/01/18 08:36:24;;;;;;;11.02;7.85;;;-1.20;99.90;;;;;;5071923;28;20041;-77
2023/01/18 08:38:51;;;;;;;10.25;6.70;;;-0.10;99.90;;;;;;5060607;28;20076;-80
2023/01/18 08:41:19;;;;;;;9.95;7.18;;;-1.20;99.90;;;;;;5067448;28;20048;-80
2023/01/18 08:43:49;;;;;;;9.82;7.90;;;-1.10;99.90;;;;;;5065895;28;20083;-78
2023/01/18 08:46:15;;;;;;;10.88;7.70;;;-1.00;99.90;;;;;;5074972;28;20480;-77
2023/01/18 08:48:42;;;;;;;8.60;6.55;;;-1.00;99.90;;;;;;5064406;28;20519;-76
2023/01/18 08:51:08;;;;;;;7.97;5.75;;;-1.00;99.90;;;;;;5069151;28;20051;-79
2023/01/18 08:53:34;;;;;;;10.18;6.35;;;-0.90;99.90;;;;;;5056594;28;20044;-77
2023/01/18 08:56:05;;;;;;;11.13;7.50;;;-0.90;99.90;;;;;;5075688;28;20054;-78
2023/01/18 08:58:31;;;;;;;9.27;6.53;;;-0.90;99.90;;;;;;5075209;28;20054;-78
2023/01/18 09:00:57;;;;;;;11.07;6.55;;;-0.80;99.90;;;;;;5077713;28;20056;-78
2023/01/18 09:03:24;;;;;;;8.55;6.65;;;-0.70;99.90;;;;;;5067919;28;20455;-76
2023/01/18 09:05:50;;;;;;;8.77;6.30;;;-0.10;99.90;;;;;;5075574;28;20040;-76
2023/01/18 09:08:16;;;;;;;10.05;6.45;;;-0.40;99.90;;;;;;5069671;28;20056;-77
2023/01/18 09:10:43;;;;;;;8.27;6.03;;;-0.50;99.90;;;;;;5061906;28;20107;-77
2023/01/18 09:13:09;;;;;;;10.90;6.63;;;-0.50;99.90;;;;;;5076560;28;20076;-77
2023/01/18 09:15:36;;;;;;;8.75;6.40;;;-0.50;99.90;;;;;;5067533;28;20053;-77
2023/01/18 09:18:05;;;;;;;8.80;6.53;;;-0.40;99.90;;;;;;5067925;28;20058;-78
2023/01/18 09:20:32;;;;;;;6.85;5.10;;;-0.30;99.90;;;;;;5076284;28;20098;-77
2023/01/18 09:23:01;;;;;;;8.32;5.90;;;-0.20;99.90;;;;;;5074869;28;20634;-78
2023/01/18 09:25:27;;;;;;;8.32;6.20;;;-0.20;99.90;;;;;;5076405;28;20057;-77
2023/01/18 09:27:53;;;;;;;9.13;6.13;;;0.00;99.90;;;;;;5074677;28;20120;-77
2023/01/18 09:30:19;;;;;;;7.90;5.82;;;0.00;99.90;;;;;;5076422;28;20054;-79
2023/01/18 09:32:44;;;;;;;8.38;6.35;;;0.00;99.90;;;;;;5075098;28;20447;-78
2023/01/18 09:35:10;;;;;;;7.82;6.20;;;0.40;99.90;;;;;;5075723;28;20079;-78
2023/01/18 09:37:36;;;;;;;8.38;5.72;;;0.20;99.90;;;;;;5077428;28;20059;-77
2023/01/18 09:40:02;;;;;;;9.52;6.45;;;0.20;99.90;;;;;;5075315;28;20070;-78
2023/01/18 09:42:35;;;;;;;9.18;6.22;;;0.30;99.90;;;;;;5077955;28;20145;-77
2023/01/18 09:45:02;;;;;;;7.03;5.82;;;0.40;99.90;;;;;;5074061;28;20045;-76
2023/01/18 09:47:42;;;;;;;9.35;5.30;;;0.40;99.90;;;;;;5079547;28;20052;-79
2023/01/18 09:50:15;;;;;;;8.57;5.53;;;0.50;99.90;;;;;;5077705;28;20044;-77
2023/01/18 09:53:15;;;;;;;8.73;6.40;;;0.60;99.90;;;;;;5077487;28;20115;-77
2023/01/18 09:55:59;;;;;;;9.20;5.35;;;0.70;99.90;;;;;;5063800;28;20107;-78
2023/01/18 09:58:52;;;;;;;7.72;5.00;;;0.80;99.90;;;;;;5076700;28;20076;-77
2023/01/18 10:01:21;;;;;;;7.47;5.10;;;0.90;99.90;;;;;;5078759;28;20090;-79
2023/01/18 10:04:22;;;;;;;8.10;5.57;;;1.00;99.90;;;;;;5079432;28;20086;-79
2023/01/18 10:06:58;;;;;;;6.70;4.90;;;1.10;99.90;;;;;;5078549;28;20127;-78
2023/01/18 10:09:39;;;;;;;6.80;5.22;;;1.30;99.90;;;;;;5076755;28;20049;-80
2023/01/18 10:12:25;;;;;;;8.77;4.65;;;1.40;99.90;;;;;;5078077;28;20310;-79
2023/01/18 10:14:51;;;;;;;7.10;4.78;;;;;;;;;;5073982;28;20075;-78
2023/01/18 10:17:21;;;;;;;6.13;4.18;;;1.60;99.90;;;;;;5072800;28;20048;-78
2023/01/18 10:19:48;;;;;;;7.32;5.13;;;1.80;99.90;;;;;;5076605;28;20047;-78
2023/01/18 10:22:44;;;;;;;6.30;4.15;;;1.80;99.90;;;;;;5078706;28;20044;-78
2023/01/18 10:25:36;;;;;;;5.20;4.13;;;1.90;99.90;;;;;;5078284;28;20128;-79
2023/01/18 10:28:25;;;;;;;6.07;4.15;;;2.20;99.90;;;;;;5079099;28;20048;-78
2023/01/18 10:31:13;;;;;;;6.38;4.20;;;2.50;99.90;;;;;;5079439;28;20056;-79
2023/01/18 10:33:41;;;;;;;7.60;4.22;;;2.80;99.90;;;;;;5066883;28;20084;-79
2023/01/18 10:36:32;;;;;;;5.43;3.85;;;3.10;99.90;;;;;;5076887;28;20049;-81
2023/01/18 10:39:03;;;;;;;6.40;4.10;;;3.30;99.90;;;;;;5061056;28;20045;-80
2023/01/18 10:41:36;;;;;;;5.85;4.15;;;3.60;99.90;;;;;;5091471;28;20045;-79
2023/01/18 10:44:01;;;;;;;5.88;3.78;;;3.90;99.90;;;;;;5075689;28;20097;-83
2023/01/18 10:46:27;;;;;;;5.72;3.90;;;4.10;99.90;;;;;;5062577;28;20060;-80
2023/01/18 10:48:56;;;;;;;4.75;3.17;;;4.30;99.90;;;;;;5078960;28;20083;-80
2023/01/18 10:51:36;;;;;;;4.93;3.45;;;4.40;99.90;;;;;;5079039;28;20050;-79
2023/01/18 10:54:25;;;;;;;5.00;3.72;;;4.50;99.90;;;;;;5077361;28;20048;-81
2023/01/18 10:57:02;;;;;;;4.32;3.22;;;4.50;99.90;;;;;;5077373;28;20040;-76
2023/01/18 10:59:38;;;;;;;5.60;3.45;;;4.60;99.90;;;;;;5078410;28;20052;-80
2023/01/18 11:02:04;;;;;;;5.10;3.20;;;4.70;99.90;;;;;;5077039;28;20055;-80
2023/01/18 11:04:32;;;;;;;5.07;3.17;;;4.80;99.90;;;;;;5078365;28;20029;-84
2023/01/18 11:07:03;;;;;;;5.35;3.50;;;4.70;99.90;;;;;;5077552;28;20052;-79
2023/01/18 11:09:54;;;;;;;5.50;3.53;;;4.70;99.90;;;;;;5079129;28;20048;-79
2023/01/18 11:12:40;;;;;;;5.40;3.25;;;4.70;99.90;;;;;;5072801;28;20579;-80
2023/01/18 11:15:14;;;;;;;5.13;3.50;;;4.80;99.90;;;;;;5076077;28;20536;-82
2023/01/18 11:17:57;;;;;;;5.93;3.50;;;4.80;99.90;;;;;;5078265;28;20059;-77
2023/01/18 11:20:46;;;;;;;5.00;3.63;;;4.80;99.90;;;;;;5063626;28;20037;-83
2023/01/18 11:23:17;;;;;;;4.00;3.30;;;4.80;99.90;;;;;;5076366;28;20232;-81
2023/01/18 11:25:53;;;;;;;5.05;3.40;;;4.60;99.90;;;;;;5076765;28;20052;-80
2023/01/18 11:28:29;;;;;;;4.75;3.17;;;4.30;99.90;;;;;;5076389;28;20040;-80
2023/01/18 11:31:17;;;;;;;5.07;3.78;;;4.00;99.90;;;;;;5078084;28;20049;-82
2023/01/18 11:33:53;;;;;;;4.85;3.85;;;3.70;99.90;;;;;;5077690;28;20062;-80
2023/01/18 11:36:31;;;;;;;5.90;4.20;;;3.60;99.90;;;;;;5077353;28;20111;-84
2023/01/18 11:39:18;;;;;;;5.28;3.17;;;3.30;99.90;;;;;;5077897;28;20488;-80
2023/01/18 11:41:43;;;;;;;4.30;3.17;;;3.10;99.90;;;;;;5090458;28;20045;-80
2023/01/18 11:44:29;;;;;;;4.93;3.35;;;3.10;99.90;;;;;;5056859;28;20052;-80
2023/01/18 11:46:57;;;;;;;7.00;4.05;;;3.10;99.90;;;;;;5061301;28;20044;-78
2023/01/18 11:49:43;;;;;;;5.55;3.55;;;3.20;99.90;;;;;;5075152;28;20067;-77
2023/01/18 11:52:17;;;;;;;7.35;3.97;;;3.10;99.90;;;;;;5058155;28;20041;-79
2023/01/18 11:54:49;;;;;;;5.57;4.13;;;3.10;99.90;;;;;;5076744;28;20057;-82
2023/01/18 11:57:15;;;;;;;5.82;3.85;;;3.10;99.90;;;;;;5090329;28;20462;-81
2023/01/18 11:59:44;;;;;;;5.80;3.50;;;3.30;99.90;;;;;;5043927;28;20029;-82
2023/01/18 12:02:31;;;;;;;5.43;3.92;;;3.40;99.90;;;;;;5077949;28;20524;-80
2023/01/18 12:05:15;;;;;;;5.68;3.13;;;3.30;99.90;;;;;;5078830;28;20055;-80
2023/01/18 12:07:57;;;;;;;5.43;3.53;;;3.30;99.90;;;;;;5076763;28;20110;-77
2023/01/18 12:10:25;;;;;;;6.65;3.88;;;3.10;99.90;;;;;;5065497;28;20108;-78
2023/01/18 12:13:11;;;;;;;4.85;3.55;;;3.10;99.90;;;;;;5069055;28;20056;-82
2023/01/18 12:15:54;;;;;;;5.10;3.47;;;3.10;99.90;;;;;;5068096;28;20055;-80
2023/01/18 12:18:23;;;;;;;5.80;3.88;;;3.10;99.90;;;;;;5069870;28;20052;-79
2023/01/18 12:21:19;;;;;;;5.57;3.92;;;3.10;99.90;;;;;;5059099;28;20052;-83
2023/01/18 12:24:03;;;;;;;6.78;4.00;;;3.20;99.90;;;;;;5054986;28;20064;-81
2023/01/18 12:26:56;;;;;;;4.32;3.65;;;3.20;99.90;;;;;;5062548;28;20040;-76
2023/01/18 12:29:48;;;;;;;4.38;3.92;;;3.20;99.90;;;;;;5057907;28;20106;-75
2023/01/18 12:32:40;;;;;;;6.03;3.95;;;3.20;99.90;;;;;;5069959;28;20083;-80
2023/01/18 12:35:12;;;;;;;5.55;3.85;;;3.20;99.90;;;;;;5089830;28;20061;-83
2023/01/18 12:38:26;;;;;;;5.38;3.88;;;3.30;99.90;;;;;;5071452;28;20139;-80
2023/01/18 12:41:04;;;;;;;4.90;3.50;;;3.40;99.90;;;;;;5059018;28;20064;-80
2023/01/18 12:44:02;;;;;;;4.10;3.45;;;3.50;99.90;;;;;;5077637;28;20530;-81
2023/01/18 12:46:35;;;;;;;5.38;3.33;;;3.60;99.90;;;;;;5017591;28;20639;-80
2023/01/18 12:49:10;;;;;;;5.65;3.75;;;3.60;99.90;;;;;;5076560;28;20127;-78
2023/01/18 12:51:39;;;;;;;5.20;3.67;;;3.70;99.90;;;;;;5076529;28;20630;-79
2023/01/18 12:54:11;;;;;;;4.82;3.80;;;4.00;99.90;;;;;;5075509;28;20180;-83
2023/01/18 12:56:40;;;;;;;4.63;3.30;;;4.20;99.90;;;;;;5076390;28;20036;-78
2023/01/18 12:59:16;;;;;;;7.10;3.70;;;4.20;99.90;;;;;;5076455;28;20068;-80
2023/01/18 13:01:47;;;;;;;5.30;3.50;;;4.10;99.90;;;;;;5074965;28;20045;-78
2023/01/18 13:04:23;;;;;;;4.28;3.10;;;4.10;99.90;;;;;;5077773;28;20045;-75
2023/01/18 13:06:54;;;;;;;6.10;3.78;;;4.10;99.90;;;;;;5074926;28;20397;-76
2023/01/18 13:09:32;;;;;;;5.93;3.28;;;4.20;99.90;;;;;;5076716;28;20041;-81
2023/01/18 13:12:02;;;;;;;4.85;3.55;;;4.50;99.90;;;;;;5074921;28;20214;-79
2023/01/18 13:14:47;;;;;;;5.70;3.35;;;4.70;99.90;;;;;;5075169;28;20044;-79
2023/01/18 13:17:25;;;;;;;4.68;3.47;;;4.70;99.90;;;;;;5066429;28;20040;-79
2023/01/18 13:20:21;;;;;;;4.00;2.75;;;4.90;99.90;;;;;;5056550;28;20068;-76
2023/01/18 13:23:08;;;;;;;4.20;3.42;;;4.90;99.90;;;;;;5094315;28;20121;-78
2023/01/18 13:26:06;;;;;;;5.85;3.03;;;4.60;99.90;;;;;;5081408;28;20048;-79
2023/01/18 13:28:32;;;;;;;4.18;3.10;;;4.50;99.90;;;;;;5078486;28;20087;-78
2023/01/18 13:31:04;;;;;;;3.78;2.78;;;4.60;99.90;;;;;;5079705;28;20381;-80
2023/01/18 13:33:39;;;;;;;6.80;3.13;;;4.50;99.90;;;;;;5078646;28;20048;-79
2023/01/18 13:36:13;;;;;;;5.93;3.35;;;4.30;99.90;;;;;;5094607;28;20215;-79
2023/01/18 13:38:49;;;;;;;4.82;3.13;;;4.40;99.90;;;;;;5062205;28;20440;-78
2023/01/18 13:41:28;;;;;;;4.47;3.20;;;4.50;99.90;;;;;;5069641;28;20050;-81
2023/01/18 13:44:00;;;;;;;5.00;3.30;;;4.50;99.90;;;;;;5071172;28;20128;-77
2023/01/18 13:46:27;;;;;;;4.95;2.90;;;4.30;99.90;;;;;;5078458;28;20136;-76